sensor_id;sensor_type;location;lat;lon;timestamp;P1;durP1;ratioP1;P2;durP2;ratioP2
56201;SDS011;42117;50.360;3.508;2023-03-05T00:01:13;8.02;;;6.35;;
56201;SDS011;42117;50.360;3.508;2023-03-05T00:03:39;12.52;;;6.65;;
56201;SDS011;42117;50.360;3.508;2023-03-05T00:06:05;6.80;;;5.80;;
56201;SDS011;42117;50.360;3.508;2023-03-05T00:08:32;11.33;;;6.67;;
56201;SDS011;42117;50.360;3.508;2023-03-05T00:10:59;10.75;;;7.07;;
56201;SDS011;42117;50.360;3.508;2023-03-05T00:13:25;11.93;;;6.85;;
56201;SDS011;42117;50.360;3.508;2023-03-05T00:15:52;11.37;;;6.87;;
56201;SDS011;42117;50.360;3.508;2023-03-05T00:18:18;16.85;;;7.32;;
56201;SDS011;42117;50.360;3.508;2023-03-05T00:20:44;12.50;;;7.03;;
56201;SDS011;42117;50.360;3.508;2023-03-05T00:23:10;13.32;;;7.35;;
56201;SDS011;42117;50.360;3.508;2023-03-05T00:25:36;14.77;;;7.87;;
56201;SDS011;42117;50.360;3.508;2023-03-05T00:28:03;14.98;;;8.10;;
56201;SDS011;42117;50.360;3.508;2023-03-05T00:30:30;13.20;;;7.40;;
56201;SDS011;42117;50.360;3.508;2023-03-05T00:32:56;16.30;;;8.20;;
56201;SDS011;42117;50.360;3.508;2023-03-05T00:35:22;14.57;;;8.27;;
56201;SDS011;42117;50.360;3.508;2023-03-05T00:37:48;13.18;;;7.53;;
56201;SDS011;42117;50.360;3.508;2023-03-05T00:40:15;11.73;;;7.10;;
56201;SDS011;42117;50.360;3.508;2023-03-05T00:42:41;14.85;;;8.00;;
56201;SDS011;42117;50.360;3.508;2023-03-05T00:45:08;12.20;;;6.80;;
56201;SDS011;42117;50.360;3.508;2023-03-05T00:47:34;12.38;;;5.90;;
56201;SDS011;42117;50.360;3.508;2023-03-05T00:50:01;8.70;;;5.73;;
56201;SDS011;42117;50.360;3.508;2023-03-05T00:52:27;7.50;;;5.95;;
56201;SDS011;42117;50.360;3.508;2023-03-05T00:54:53;9.05;;;6.10;;
56201;SDS011;42117;50.360;3.508;2023-03-05T00:57:19;7.13;;;5.50;;
56201;SDS011;42117;50.360;3.508;2023-03-05T00:59:45;11.27;;;6.53;;
56201;SDS011;42117;50.360;3.508;2023-03-05T01:02:11;8.13;;;5.90;;
56201;SDS011;42117;50.360;3.508;2023-03-05T01:04:38;10.52;;;5.57;;
56201;SDS011;42117;50.360;3.508;2023-03-05T01:07:04;10.75;;;5.20;;
56201;SDS011;42117;50.360;3.508;2023-03-05T01:09:30;14.07;;;5.57;;
56201;SDS011;42117;50.360;3.508;2023-03-05T01:11:56;7.53;;;4.55;;
56201;SDS011;42117;50.360;3.508;2023-03-05T01:14:24;6.00;;;4.50;;
56201;SDS011;42117;50.360;3.508;2023-03-05T01:16:51;8.83;;;4.77;;
56201;SDS011;42117;50.360;3.508;2023-03-05T01:19:17;10.60;;;5.00;;
56201;SDS011;42117;50.360;3.508;2023-03-05T01:21:43;11.52;;;5.03;;
56201;SDS011;42117;50.360;3.508;2023-03-05T01:24:09;8.10;;;4.80;;
56201;SDS011;42117;50.360;3.508;2023-03-05T01:26:35;8.63;;;4.60;;
56201;SDS011;42117;50.360;3.508;2023-03-05T01:29:01;6.68;;;4.65;;
56201;SDS011;42117;50.360;3.508;2023-03-05T01:31:27;6.70;;;4.45;;
56201;SDS011;42117;50.360;3.508;2023-03-05T01:33:54;7.43;;;4.47;;
56201;SDS011;42117;50.360;3.508;2023-03-05T01:36:20;5.70;;;4.13;;
56201;SDS011;42117;50.360;3.508;2023-03-05T01:38:49;8.63;;;4.53;;
56201;SDS011;42117;50.360;3.508;2023-03-05T01:41:16;9.65;;;5.10;;
56201;SDS011;42117;50.360;3.508;2023-03-05T01:43:42;7.57;;;4.90;;
56201;SDS011;42117;50.360;3.508;2023-03-05T01:46:21;7.63;;;5.57;;
56201;SDS011;42117;50.360;3.508;2023-03-05T01:48:49;6.90;;;5.20;;
56201;SDS011;42117;50.360;3.508;2023-03-05T01:51:16;8.25;;;5.28;;
56201;SDS011;42117;50.360;3.508;2023-03-05T01:53:43;7.28;;;5.47;;
56201;SDS011;42117;50.360;3.508;2023-03-05T01:56:09;9.45;;;5.85;;
56201;SDS011;42117;50.360;3.508;2023-03-05T01:58:35;8.98;;;5.43;;
56201;SDS011;42117;50.360;3.508;2023-03-05T02:01:03;13.10;;;6.15;;
56201;SDS011;42117;50.360;3.508;2023-03-05T02:03:30;9.13;;;5.50;;
56201;SDS011;42117;50.360;3.508;2023-03-05T02:05:56;8.52;;;5.97;;
56201;SDS011;42117;50.360;3.508;2023-03-05T02:08:23;8.23;;;6.05;;
56201;SDS011;42117;50.360;3.508;2023-03-05T02:10:53;10.38;;;5.90;;
56201;SDS011;42117;50.360;3.508;2023-03-05T02:13:27;11.60;;;6.60;;
56201;SDS011;42117;50.360;3.508;2023-03-05T02:15:55;11.57;;;6.40;;
56201;SDS011;42117;50.360;3.508;2023-03-05T02:18:22;10.55;;;6.13;;
56201;SDS011;42117;50.360;3.508;2023-03-05T02:21:07;10.07;;;6.53;;
56201;SDS011;42117;50.360;3.508;2023-03-05T02:23:34;9.40;;;6.80;;
56201;SDS011;42117;50.360;3.508;2023-03-05T02:26:02;11.80;;;7.05;;
56201;SDS011;42117;50.360;3.508;2023-03-05T02:28:34;11.48;;;7.18;;
56201;SDS011;42117;50.360;3.508;2023-03-05T02:31:01;12.75;;;7.45;;
56201;SDS011;42117;50.360;3.508;2023-03-05T02:33:27;11.18;;;7.25;;
56201;SDS011;42117;50.360;3.508;2023-03-05T02:35:53;11.37;;;7.40;;
56201;SDS011;42117;50.360;3.508;2023-03-05T02:38:19;9.90;;;7.00;;
56201;SDS011;42117;50.360;3.508;2023-03-05T02:40:45;9.93;;;6.80;;
56201;SDS011;42117;50.360;3.508;2023-03-05T02:43:11;10.32;;;6.97;;
56201;SDS011;42117;50.360;3.508;2023-03-05T02:45:38;9.23;;;7.25;;
56201;SDS011;42117;50.360;3.508;2023-03-05T02:48:04;13.77;;;7.85;;
56201;SDS011;42117;50.360;3.508;2023-03-05T02:50:30;16.35;;;8.55;;
56201;SDS011;42117;50.360;3.508;2023-03-05T02:52:57;12.30;;;7.82;;
56201;SDS011;42117;50.360;3.508;2023-03-05T02:55:23;11.02;;;7.78;;
56201;SDS011;42117;50.360;3.508;2023-03-05T02:57:49;14.65;;;7.72;;
56201;SDS011;42117;50.360;3.508;2023-03-05T03:00:15;16.33;;;8.50;;
56201;SDS011;42117;50.360;3.508;2023-03-05T03:02:41;15.07;;;8.33;;
56201;SDS011;42117;50.360;3.508;2023-03-05T03:05:07;12.60;;;8.23;;
56201;SDS011;42117;50.360;3.508;2023-03-05T03:07:33;12.38;;;8.35;;
56201;SDS011;42117;50.360;3.508;2023-03-05T03:10:00;15.95;;;8.15;;
56201;SDS011;42117;50.360;3.508;2023-03-05T03:12:26;13.27;;;7.60;;
56201;SDS011;42117;50.360;3.508;2023-03-05T03:14:52;13.57;;;8.20;;
56201;SDS011;42117;50.360;3.508;2023-03-05T03:17:18;14.07;;;8.50;;
56201;SDS011;42117;50.360;3.508;2023-03-05T03:19:44;12.20;;;7.63;;
56201;SDS011;42117;50.360;3.508;2023-03-05T03:22:11;17.95;;;9.07;;
56201;SDS011;42117;50.360;3.508;2023-03-05T03:24:38;16.55;;;8.10;;
56201;SDS011;42117;50.360;3.508;2023-03-05T03:27:04;15.33;;;8.30;;
56201;SDS011;42117;50.360;3.508;2023-03-05T03:29:30;13.77;;;8.07;;
56201;SDS011;42117;50.360;3.508;2023-03-05T03:31:56;15.15;;;8.32;;
56201;SDS011;42117;50.360;3.508;2023-03-05T03:34:22;13.95;;;8.77;;
56201;SDS011;42117;50.360;3.508;2023-03-05T03:36:49;13.70;;;9.30;;
56201;SDS011;42117;50.360;3.508;2023-03-05T03:39:16;17.02;;;8.77;;
56201;SDS011;42117;50.360;3.508;2023-03-05T03:41:43;16.35;;;9.35;;
56201;SDS011;42117;50.360;3.508;2023-03-05T03:44:10;20.33;;;9.48;;
56201;SDS011;42117;50.360;3.508;2023-03-05T03:46:36;17.00;;;9.50;;
56201;SDS011;42117;50.360;3.508;2023-03-05T03:49:03;16.63;;;9.10;;
56201;SDS011;42117;50.360;3.508;2023-03-05T03:51:29;15.20;;;9.00;;
56201;SDS011;42117;50.360;3.508;2023-03-05T03:53:55;15.90;;;9.30;;
56201;SDS011;42117;50.360;3.508;2023-03-05T03:56:21;13.65;;;9.25;;
56201;SDS011;42117;50.360;3.508;2023-03-05T03:58:51;19.05;;;10.27;;
56201;SDS011;42117;50.360;3.508;2023-03-05T04:01:18;13.63;;;8.85;;
56201;SDS011;42117;50.360;3.508;2023-03-05T04:03:44;13.68;;;8.18;;
56201;SDS011;42117;50.360;3.508;2023-03-05T04:06:10;17.00;;;9.48;;
56201;SDS011;42117;50.360;3.508;2023-03-05T04:08:36;14.95;;;8.75;;
56201;SDS011;42117;50.360;3.508;2023-03-05T04:11:03;11.20;;;7.85;;
56201;SDS011;42117;50.360;3.508;2023-03-05T04:13:29;14.77;;;8.50;;
56201;SDS011;42117;50.360;3.508;2023-03-05T04:15:55;16.48;;;8.82;;
56201;SDS011;42117;50.360;3.508;2023-03-05T04:18:21;15.60;;;8.73;;
56201;SDS011;42117;50.360;3.508;2023-03-05T04:20:47;12.67;;;7.30;;
56201;SDS011;42117;50.360;3.508;2023-03-05T04:23:13;13.43;;;7.50;;
56201;SDS011;42117;50.360;3.508;2023-03-05T04:25:39;12.13;;;8.27;;
56201;SDS011;42117;50.360;3.508;2023-03-05T04:28:05;15.35;;;8.55;;
56201;SDS011;42117;50.360;3.508;2023-03-05T04:30:31;12.27;;;7.83;;
56201;SDS011;42117;50.360;3.508;2023-03-05T04:32:58;12.18;;;7.72;;
56201;SDS011;42117;50.360;3.508;2023-03-05T04:35:24;14.15;;;8.15;;
56201;SDS011;42117;50.360;3.508;2023-03-05T04:37:50;15.23;;;8.73;;
56201;SDS011;42117;50.360;3.508;2023-03-05T04:40:16;15.30;;;8.97;;
56201;SDS011;42117;50.360;3.508;2023-03-05T04:42:42;20.20;;;9.40;;
56201;SDS011;42117;50.360;3.508;2023-03-05T04:45:08;17.40;;;8.23;;
56201;SDS011;42117;50.360;3.508;2023-03-05T04:47:34;20.53;;;9.50;;
56201;SDS011;42117;50.360;3.508;2023-03-05T04:50:01;16.27;;;8.75;;
56201;SDS011;42117;50.360;3.508;2023-03-05T04:52:27;13.68;;;9.10;;
56201;SDS011;42117;50.360;3.508;2023-03-05T04:54:53;16.77;;;9.30;;
56201;SDS011;42117;50.360;3.508;2023-03-05T04:57:19;17.70;;;9.10;;
56201;SDS011;42117;50.360;3.508;2023-03-05T04:59:45;15.77;;;9.32;;
56201;SDS011;42117;50.360;3.508;2023-03-05T05:02:11;15.60;;;9.55;;
56201;SDS011;42117;50.360;3.508;2023-03-05T05:04:37;15.32;;;9.30;;
56201;SDS011;42117;50.360;3.508;2023-03-05T05:07:04;18.27;;;8.88;;
56201;SDS011;42117;50.360;3.508;2023-03-05T05:09:31;16.33;;;8.70;;
56201;SDS011;42117;50.360;3.508;2023-03-05T05:11:57;17.87;;;9.53;;
56201;SDS011;42117;50.360;3.508;2023-03-05T05:14:23;17.63;;;8.43;;
56201;SDS011;42117;50.360;3.508;2023-03-05T05:16:49;15.05;;;9.55;;
56201;SDS011;42117;50.360;3.508;2023-03-05T05:19:15;16.73;;;8.63;;
56201;SDS011;42117;50.360;3.508;2023-03-05T05:21:41;15.02;;;8.43;;
56201;SDS011;42117;50.360;3.508;2023-03-05T05:24:07;16.08;;;9.32;;
56201;SDS011;42117;50.360;3.508;2023-03-05T05:26:33;16.38;;;9.20;;
56201;SDS011;42117;50.360;3.508;2023-03-05T05:28:59;19.67;;;9.82;;
56201;SDS011;42117;50.360;3.508;2023-03-05T05:31:25;20.38;;;9.98;;
56201;SDS011;42117;50.360;3.508;2023-03-05T05:33:51;23.20;;;10.52;;
56201;SDS011;42117;50.360;3.508;2023-03-05T05:36:18;19.08;;;9.90;;
56201;SDS011;42117;50.360;3.508;2023-03-05T05:38:46;17.48;;;9.38;;
56201;SDS011;42117;50.360;3.508;2023-03-05T05:41:13;21.40;;;10.20;;
56201;SDS011;42117;50.360;3.508;2023-03-05T05:43:39;18.20;;;9.95;;
56201;SDS011;42117;50.360;3.508;2023-03-05T05:46:06;21.63;;;10.90;;
56201;SDS011;42117;50.360;3.508;2023-03-05T05:48:33;18.30;;;10.07;;
56201;SDS011;42117;50.360;3.508;2023-03-05T05:51:21;18.65;;;9.77;;
56201;SDS011;42117;50.360;3.508;2023-03-05T05:53:46;20.25;;;9.80;;
56201;SDS011;42117;50.360;3.508;2023-03-05T05:56:12;15.75;;;9.25;;
56201;SDS011;42117;50.360;3.508;2023-03-05T05:58:39;16.15;;;8.52;;
56201;SDS011;42117;50.360;3.508;2023-03-05T06:01:13;17.55;;;9.23;;
56201;SDS011;42117;50.360;3.508;2023-03-05T06:03:39;15.52;;;8.50;;
56201;SDS011;42117;50.360;3.508;2023-03-05T06:06:12;13.43;;;8.38;;
56201;SDS011;42117;50.360;3.508;2023-03-05T06:08:38;13.55;;;8.13;;
56201;SDS011;42117;50.360;3.508;2023-03-05T06:11:05;11.90;;;7.43;;
56201;SDS011;42117;50.360;3.508;2023-03-05T06:13:31;11.57;;;7.68;;
56201;SDS011;42117;50.360;3.508;2023-03-05T06:15:58;13.63;;;7.35;;
56201;SDS011;42117;50.360;3.508;2023-03-05T06:18:24;11.63;;;7.22;;
56201;SDS011;42117;50.360;3.508;2023-03-05T06:20:57;11.48;;;6.70;;
56201;SDS011;42117;50.360;3.508;2023-03-05T06:23:24;10.18;;;6.90;;
56201;SDS011;42117;50.360;3.508;2023-03-05T06:25:50;11.02;;;7.32;;
56201;SDS011;42117;50.360;3.508;2023-03-05T06:28:16;14.05;;;8.13;;
56201;SDS011;42117;50.360;3.508;2023-03-05T06:30:43;13.43;;;8.35;;
56201;SDS011;42117;50.360;3.508;2023-03-05T06:33:09;11.05;;;6.88;;
56201;SDS011;42117;50.360;3.508;2023-03-05T06:35:36;11.17;;;7.07;;
56201;SDS011;42117;50.360;3.508;2023-03-05T06:38:03;13.02;;;7.40;;
56201;SDS011;42117;50.360;3.508;2023-03-05T06:40:29;11.70;;;7.45;;
56201;SDS011;42117;50.360;3.508;2023-03-05T06:42:55;13.00;;;7.32;;
56201;SDS011;42117;50.360;3.508;2023-03-05T06:45:21;11.07;;;7.27;;
56201;SDS011;42117;50.360;3.508;2023-03-05T06:47:47;12.82;;;7.32;;
56201;SDS011;42117;50.360;3.508;2023-03-05T06:50:13;14.73;;;8.57;;
56201;SDS011;42117;50.360;3.508;2023-03-05T06:52:39;15.20;;;8.45;;
56201;SDS011;42117;50.360;3.508;2023-03-05T06:55:06;17.83;;;9.25;;
56201;SDS011;42117;50.360;3.508;2023-03-05T06:57:32;18.70;;;9.88;;
56201;SDS011;42117;50.360;3.508;2023-03-05T06:59:58;17.47;;;10.70;;
56201;SDS011;42117;50.360;3.508;2023-03-05T07:02:24;22.55;;;11.30;;
56201;SDS011;42117;50.360;3.508;2023-03-05T07:04:50;20.30;;;10.88;;
56201;SDS011;42117;50.360;3.508;2023-03-05T07:07:16;17.00;;;9.85;;
56201;SDS011;42117;50.360;3.508;2023-03-05T07:09:42;21.38;;;11.15;;
56201;SDS011;42117;50.360;3.508;2023-03-05T07:12:10;18.30;;;10.55;;
56201;SDS011;42117;50.360;3.508;2023-03-05T07:14:36;17.23;;;9.27;;
56201;SDS011;42117;50.360;3.508;2023-03-05T07:17:03;24.00;;;11.85;;
56201;SDS011;42117;50.360;3.508;2023-03-05T07:19:29;21.07;;;11.20;;
56201;SDS011;42117;50.360;3.508;2023-03-05T07:21:55;18.40;;;9.82;;
56201;SDS011;42117;50.360;3.508;2023-03-05T07:24:21;19.75;;;10.25;;
56201;SDS011;42117;50.360;3.508;2023-03-05T07:26:52;19.00;;;10.50;;
56201;SDS011;42117;50.360;3.508;2023-03-05T07:29:18;18.67;;;10.20;;
56201;SDS011;42117;50.360;3.508;2023-03-05T07:31:44;18.80;;;9.98;;
56201;SDS011;42117;50.360;3.508;2023-03-05T07:34:11;20.08;;;9.45;;
56201;SDS011;42117;50.360;3.508;2023-03-05T07:36:37;17.70;;;10.27;;
56201;SDS011;42117;50.360;3.508;2023-03-05T07:39:03;18.10;;;9.30;;
56201;SDS011;42117;50.360;3.508;2023-03-05T07:41:29;22.23;;;9.25;;
56201;SDS011;42117;50.360;3.508;2023-03-05T07:43:55;15.67;;;8.87;;
56201;SDS011;42117;50.360;3.508;2023-03-05T07:46:23;15.77;;;9.10;;
56201;SDS011;42117;50.360;3.508;2023-03-05T07:48:49;12.63;;;8.07;;
56201;SDS011;42117;50.360;3.508;2023-03-05T07:51:16;14.57;;;7.93;;
56201;SDS011;42117;50.360;3.508;2023-03-05T07:53:43;10.50;;;7.32;;
56201;SDS011;42117;50.360;3.508;2023-03-05T07:56:10;11.27;;;7.15;;
56201;SDS011;42117;50.360;3.508;2023-03-05T07:58:36;13.45;;;7.95;;
56201;SDS011;42117;50.360;3.508;2023-03-05T08:01:02;12.23;;;7.60;;
56201;SDS011;42117;50.360;3.508;2023-03-05T08:03:28;16.25;;;8.40;;
56201;SDS011;42117;50.360;3.508;2023-03-05T08:05:54;15.43;;;8.43;;
56201;SDS011;42117;50.360;3.508;2023-03-05T08:08:20;13.02;;;8.70;;
56201;SDS011;42117;50.360;3.508;2023-03-05T08:10:47;15.43;;;8.48;;
56201;SDS011;42117;50.360;3.508;2023-03-05T08:13:13;14.67;;;8.43;;
56201;SDS011;42117;50.360;3.508;2023-03-05T08:15:39;18.45;;;8.40;;
56201;SDS011;42117;50.360;3.508;2023-03-05T08:18:05;12.50;;;7.43;;
56201;SDS011;42117;50.360;3.508;2023-03-05T08:20:33;12.63;;;7.20;;
56201;SDS011;42117;50.360;3.508;2023-03-05T08:23:00;10.90;;;7.07;;
56201;SDS011;42117;50.360;3.508;2023-03-05T08:25:27;12.48;;;7.03;;
56201;SDS011;42117;50.360;3.508;2023-03-05T08:27:53;13.73;;;6.97;;
56201;SDS011;42117;50.360;3.508;2023-03-05T08:30:19;12.93;;;7.63;;
56201;SDS011;42117;50.360;3.508;2023-03-05T08:32:51;13.10;;;7.33;;
56201;SDS011;42117;50.360;3.508;2023-03-05T08:35:17;10.18;;;6.75;;
56201;SDS011;42117;50.360;3.508;2023-03-05T08:37:43;10.52;;;6.32;;
56201;SDS011;42117;50.360;3.508;2023-03-05T08:40:09;11.52;;;6.95;;
56201;SDS011;42117;50.360;3.508;2023-03-05T08:42:35;13.07;;;7.15;;
56201;SDS011;42117;50.360;3.508;2023-03-05T08:45:01;11.23;;;6.95;;
56201;SDS011;42117;50.360;3.508;2023-03-05T08:47:27;10.60;;;6.85;;
56201;SDS011;42117;50.360;3.508;2023-03-05T08:49:53;9.10;;;6.28;;
56201;SDS011;42117;50.360;3.508;2023-03-05T08:52:21;10.40;;;5.70;;
56201;SDS011;42117;50.360;3.508;2023-03-05T08:54:47;7.97;;;5.38;;
56201;SDS011;42117;50.360;3.508;2023-03-05T08:57:13;8.00;;;5.60;;
56201;SDS011;42117;50.360;3.508;2023-03-05T08:59:39;9.27;;;5.70;;
56201;SDS011;42117;50.360;3.508;2023-03-05T09:02:05;7.63;;;4.78;;
56201;SDS011;42117;50.360;3.508;2023-03-05T09:04:31;7.10;;;4.97;;
56201;SDS011;42117;50.360;3.508;2023-03-05T09:06:57;7.70;;;5.45;;
56201;SDS011;42117;50.360;3.508;2023-03-05T09:09:23;7.32;;;4.80;;
56201;SDS011;42117;50.360;3.508;2023-03-05T09:11:49;5.03;;;4.35;;
56201;SDS011;42117;50.360;3.508;2023-03-05T09:14:16;6.50;;;5.00;;
56201;SDS011;42117;50.360;3.508;2023-03-05T09:16:42;7.38;;;4.78;;
56201;SDS011;42117;50.360;3.508;2023-03-05T09:19:08;5.90;;;4.30;;
56201;SDS011;42117;50.360;3.508;2023-03-05T09:21:36;5.07;;;3.83;;
56201;SDS011;42117;50.360;3.508;2023-03-05T09:24:02;6.40;;;3.97;;
56201;SDS011;42117;50.360;3.508;2023-03-05T09:26:28;4.50;;;3.30;;
56201;SDS011;42117;50.360;3.508;2023-03-05T09:28:54;3.90;;;2.97;;
56201;SDS011;42117;50.360;3.508;2023-03-05T09:31:20;2.80;;;2.40;;
56201;SDS011;42117;50.360;3.508;2023-03-05T09:33:47;2.83;;;2.50;;
56201;SDS011;42117;50.360;3.508;2023-03-05T09:36:17;2.85;;;2.63;;
56201;SDS011;42117;50.360;3.508;2023-03-05T09:38:44;3.03;;;2.17;;
56201;SDS011;42117;50.360;3.508;2023-03-05T09:51:06;2.10;;;1.90;;
56201;SDS011;42117;50.360;3.508;2023-03-05T09:53:52;2.00;;;1.80;;
56201;SDS011;42117;50.360;3.508;2023-03-05T09:56:30;2.90;;;1.80;;
56201;SDS011;42117;50.360;3.508;2023-03-05T09:58:59;1.85;;;1.75;;
56201;SDS011;42117;50.360;3.508;2023-03-05T10:01:37;2.00;;;1.83;;
56201;SDS011;42117;50.360;3.508;2023-03-05T10:04:12;1.90;;;1.80;;
56201;SDS011;42117;50.360;3.508;2023-03-05T10:06:43;2.13;;;1.70;;
56201;SDS011;42117;50.360;3.508;2023-03-05T10:09:22;1.67;;;1.58;;
56201;SDS011;42117;50.360;3.508;2023-03-05T10:14:23;2.22;;;2.13;;
56201;SDS011;42117;50.360;3.508;2023-03-05T10:19:45;2.03;;;1.90;;
56201;SDS011;42117;50.360;3.508;2023-03-05T10:24:43;2.35;;;1.90;;
56201;SDS011;42117;50.360;3.508;2023-03-05T10:27:57;2.17;;;2.00;;
56201;SDS011;42117;50.360;3.508;2023-03-05T10:40:29;3.45;;;2.08;;
56201;SDS011;42117;50.360;3.508;2023-03-05T10:43:00;1.80;;;1.70;;
56201;SDS011;42117;50.360;3.508;2023-03-05T10:45:28;2.40;;;2.20;;
56201;SDS011;42117;50.360;3.508;2023-03-05T10:48:01;2.03;;;1.85;;
56201;SDS011;42117;50.360;3.508;2023-03-05T10:50:35;2.67;;;1.83;;
56201;SDS011;42117;50.360;3.508;2023-03-05T10:55:35;3.57;;;1.80;;
56201;SDS011;42117;50.360;3.508;2023-03-05T10:58:01;1.83;;;1.73;;
56201;SDS011;42117;50.360;3.508;2023-03-05T11:00:34;2.40;;;2.20;;
56201;SDS011;42117;50.360;3.508;2023-03-05T11:03:02;2.90;;;2.10;;
56201;SDS011;42117;50.360;3.508;2023-03-05T11:11:00;2.80;;;1.83;;
56201;SDS011;42117;50.360;3.508;2023-03-05T11:13:27;2.00;;;1.83;;
56201;SDS011;42117;50.360;3.508;2023-03-05T11:16:00;2.80;;;2.05;;
56201;SDS011;42117;50.360;3.508;2023-03-05T11:18:27;2.00;;;1.90;;
56201;SDS011;42117;50.360;3.508;2023-03-05T11:21:44;4.60;;;2.38;;
56201;SDS011;42117;50.360;3.508;2023-03-05T11:24:02;2.30;;;2.20;;
56201;SDS011;42117;50.360;3.508;2023-03-05T11:26:28;1.55;;;1.55;;
56201;SDS011;42117;50.360;3.508;2023-03-05T11:28:56;1.50;;;1.50;;
56201;SDS011;42117;50.360;3.508;2023-03-05T11:31:24;2.67;;;2.33;;
56201;SDS011;42117;50.360;3.508;2023-03-05T11:33:58;2.72;;;2.50;;
56201;SDS011;42117;50.360;3.508;2023-03-05T11:36:25;3.88;;;2.45;;
56201;SDS011;42117;50.360;3.508;2023-03-05T11:38:54;4.60;;;2.92;;
56201;SDS011;42117;50.360;3.508;2023-03-05T11:41:24;3.03;;;2.57;;
56201;SDS011;42117;50.360;3.508;2023-03-05T11:43:52;3.05;;;2.78;;
56201;SDS011;42117;50.360;3.508;2023-03-05T11:46:19;7.85;;;3.53;;
56201;SDS011;42117;50.360;3.508;2023-03-05T11:48:46;5.07;;;3.47;;
56201;SDS011;42117;50.360;3.508;2023-03-05T11:51:14;2.92;;;2.65;;
56201;SDS011;42117;50.360;3.508;2023-03-05T11:53:43;3.17;;;2.87;;
56201;SDS011;42117;50.360;3.508;2023-03-05T11:56:20;4.93;;;3.20;;
56201;SDS011;42117;50.360;3.508;2023-03-05T11:58:50;3.63;;;2.97;;
56201;SDS011;42117;50.360;3.508;2023-03-05T12:01:21;5.88;;;3.40;;
56201;SDS011;42117;50.360;3.508;2023-03-05T12:03:48;3.88;;;3.33;;
56201;SDS011;42117;50.360;3.508;2023-03-05T12:06:21;6.40;;;3.00;;
56201;SDS011;42117;50.360;3.508;2023-03-05T12:08:52;5.10;;;3.53;;
56201;SDS011;42117;50.360;3.508;2023-03-05T12:11:21;3.67;;;3.15;;
56201;SDS011;42117;50.360;3.508;2023-03-05T12:14:00;4.50;;;2.45;;
56201;SDS011;42117;50.360;3.508;2023-03-05T12:16:32;2.65;;;2.45;;
56201;SDS011;42117;50.360;3.508;2023-03-05T12:21:41;3.45;;;2.30;;
56201;SDS011;42117;50.360;3.508;2023-03-05T12:35:01;4.00;;;3.05;;
56201;SDS011;42117;50.360;3.508;2023-03-05T12:47:39;3.08;;;2.78;;
56201;SDS011;42117;50.360;3.508;2023-03-05T12:50:43;4.18;;;2.72;;
56201;SDS011;42117;50.360;3.508;2023-03-05T12:52:51;2.78;;;2.45;;
56201;SDS011;42117;50.360;3.508;2023-03-05T12:58:03;3.60;;;2.50;;
56201;SDS011;42117;50.360;3.508;2023-03-05T13:00:39;5.75;;;2.58;;
56201;SDS011;42117;50.360;3.508;2023-03-05T13:03:08;4.90;;;3.05;;
56201;SDS011;42117;50.360;3.508;2023-03-05T13:05:37;3.15;;;2.53;;
56201;SDS011;42117;50.360;3.508;2023-03-05T13:10:36;3.80;;;2.60;;
56201;SDS011;42117;50.360;3.508;2023-03-05T13:13:02;3.08;;;2.80;;
56201;SDS011;42117;50.360;3.508;2023-03-05T13:15:28;3.40;;;3.00;;
56201;SDS011;42117;50.360;3.508;2023-03-05T13:17:55;4.90;;;3.17;;
56201;SDS011;42117;50.360;3.508;2023-03-05T13:20:38;4.97;;;3.03;;
56201;SDS011;42117;50.360;3.508;2023-03-05T13:23:24;4.00;;;2.85;;
56201;SDS011;42117;50.360;3.508;2023-03-05T13:28:22;3.63;;;2.95;;
56201;SDS011;42117;50.360;3.508;2023-03-05T13:30:58;4.83;;;3.20;;
56201;SDS011;42117;50.360;3.508;2023-03-05T13:33:30;4.33;;;3.33;;
56201;SDS011;42117;50.360;3.508;2023-03-05T13:35:56;4.32;;;3.35;;
56201;SDS011;42117;50.360;3.508;2023-03-05T13:38:24;6.93;;;3.88;;
56201;SDS011;42117;50.360;3.508;2023-03-05T13:41:05;2.50;;;2.30;;
56201;SDS011;42117;50.360;3.508;2023-03-05T13:43:31;4.38;;;3.28;;
56201;SDS011;42117;50.360;3.508;2023-03-05T13:45:57;5.22;;;3.83;;
56201;SDS011;42117;50.360;3.508;2023-03-05T13:48:24;6.03;;;3.70;;
56201;SDS011;42117;50.360;3.508;2023-03-05T13:50:57;5.80;;;3.83;;
56201;SDS011;42117;50.360;3.508;2023-03-05T13:53:24;5.47;;;3.50;;
56201;SDS011;42117;50.360;3.508;2023-03-05T13:56:00;5.30;;;3.55;;
56201;SDS011;42117;50.360;3.508;2023-03-05T14:03:43;4.63;;;3.33;;
56201;SDS011;42117;50.360;3.508;2023-03-05T14:06:11;3.17;;;2.37;;
56201;SDS011;42117;50.360;3.508;2023-03-05T14:08:37;5.00;;;3.37;;
56201;SDS011;42117;50.360;3.508;2023-03-05T14:11:14;4.05;;;3.20;;
56201;SDS011;42117;50.360;3.508;2023-03-05T14:13:40;4.87;;;3.50;;
56201;SDS011;42117;50.360;3.508;2023-03-05T14:16:14;3.90;;;3.25;;
56201;SDS011;42117;50.360;3.508;2023-03-05T14:18:52;4.63;;;3.10;;
56201;SDS011;42117;50.360;3.508;2023-03-05T14:21:18;5.15;;;2.83;;
56201;SDS011;42117;50.360;3.508;2023-03-05T14:23:46;3.40;;;2.80;;
56201;SDS011;42117;50.360;3.508;2023-03-05T14:28:38;4.03;;;2.90;;
56201;SDS011;42117;50.360;3.508;2023-03-05T14:31:04;3.17;;;2.50;;
56201;SDS011;42117;50.360;3.508;2023-03-05T14:33:38;2.75;;;2.45;;
56201;SDS011;42117;50.360;3.508;2023-03-05T14:36:05;4.70;;;3.20;;
56201;SDS011;42117;50.360;3.508;2023-03-05T14:38:32;4.25;;;3.20;;
56201;SDS011;42117;50.360;3.508;2023-03-05T14:43:43;3.87;;;2.60;;
56201;SDS011;42117;50.360;3.508;2023-03-05T14:46:09;4.37;;;2.73;;
56201;SDS011;42117;50.360;3.508;2023-03-05T14:48:35;6.75;;;2.47;;
56201;SDS011;42117;50.360;3.508;2023-03-05T14:51:01;4.45;;;2.65;;
56201;SDS011;42117;50.360;3.508;2023-03-05T14:53:30;3.92;;;2.28;;
56201;SDS011;42117;50.360;3.508;2023-03-05T14:55:59;2.50;;;2.30;;
56201;SDS011;42117;50.360;3.508;2023-03-05T14:58:27;4.57;;;2.20;;
56201;SDS011;42117;50.360;3.508;2023-03-05T15:00:56;3.35;;;2.20;;
56201;SDS011;42117;50.360;3.508;2023-03-05T15:03:22;2.83;;;2.30;;
56201;SDS011;42117;50.360;3.508;2023-03-05T15:05:50;5.43;;;2.72;;
56201;SDS011;42117;50.360;3.508;2023-03-05T15:08:19;3.03;;;2.50;;
56201;SDS011;42117;50.360;3.508;2023-03-05T15:10:46;4.40;;;2.10;;
56201;SDS011;42117;50.360;3.508;2023-03-05T15:13:12;3.47;;;2.53;;
56201;SDS011;42117;50.360;3.508;2023-03-05T15:15:39;4.25;;;2.65;;
56201;SDS011;42117;50.360;3.508;2023-03-05T15:18:05;2.55;;;2.35;;
56201;SDS011;42117;50.360;3.508;2023-03-05T15:20:31;3.80;;;2.30;;
56201;SDS011;42117;50.360;3.508;2023-03-05T15:22:57;3.35;;;2.13;;
56201;SDS011;42117;50.360;3.508;2023-03-05T15:25:24;4.72;;;2.42;;
56201;SDS011;42117;50.360;3.508;2023-03-05T15:27:53;2.33;;;2.13;;
56201;SDS011;42117;50.360;3.508;2023-03-05T15:30:20;3.83;;;2.50;;
56201;SDS011;42117;50.360;3.508;2023-03-05T15:32:47;5.13;;;3.10;;
56201;SDS011;42117;50.360;3.508;2023-03-05T15:35:13;3.58;;;2.58;;
56201;SDS011;42117;50.360;3.508;2023-03-05T15:37:39;4.72;;;2.72;;
56201;SDS011;42117;50.360;3.508;2023-03-05T15:40:05;3.72;;;2.05;;
56201;SDS011;42117;50.360;3.508;2023-03-05T15:42:31;3.50;;;2.25;;
56201;SDS011;42117;50.360;3.508;2023-03-05T15:44:57;3.42;;;2.28;;
56201;SDS011;42117;50.360;3.508;2023-03-05T15:47:23;3.30;;;2.60;;
56201;SDS011;42117;50.360;3.508;2023-03-05T15:49:49;3.77;;;2.70;;
56201;SDS011;42117;50.360;3.508;2023-03-05T15:52:15;8.77;;;3.13;;
56201;SDS011;42117;50.360;3.508;2023-03-05T15:54:41;17.58;;;3.08;;
56201;SDS011;42117;50.360;3.508;2023-03-05T15:57:08;5.43;;;2.85;;
56201;SDS011;42117;50.360;3.508;2023-03-05T15:59:35;5.80;;;3.10;;
56201;SDS011;42117;50.360;3.508;2023-03-05T16:02:01;9.48;;;2.90;;